Time;durP1;ratioP1;P1;durP2;ratioP2;P2;SDS_P1;SDS_P2;PMS_P1;PMS_P2;Temp;Humidity;BMP_temperature;BMP_pressure;BME280_temperature;BME280_humidity;BME280_pressure;Samples;Min_cycle;Max_cycle;Signal;HPM_P1;HPM_P2
2023/05/20 00:01:38;;;;;;;4.50;2.20;;;12.10;99.90;;;;;;5034721;28;20096;-60
2023/05/20 00:04:05;;;;;;;4.20;1.73;;;12.20;99.90;;;;;;5046577;28;20021;-61
2023/05/20 00:06:33;;;;;;;2.55;1.73;;;12.40;99.90;;;;;;5044535;28;20021;-59
2023/05/20 00:09:01;;;;;;;2.92;1.98;;;12.70;99.90;;;;;;5043353;28;20112;-60
2023/05/20 00:11:29;;;;;;;4.03;1.63;;;12.80;99.90;;;;;;5049381;28;20033;-60
2023/05/20 00:13:56;;;;;;;4.20;1.48;;;13.00;99.90;;;;;;5045945;28;20517;-60
2023/05/20 00:16:23;;;;;;;9.45;3.15;;;13.20;99.90;;;;;;5041929;28;20084;-60
2023/05/20 00:18:51;;;;;;;7.38;1.92;;;13.30;99.90;;;;;;5045567;28;20021;-60
2023/05/20 00:21:18;;;;;;;5.22;2.10;;;13.60;99.90;;;;;;5028155;28;20440;-61
2023/05/20 00:23:46;;;;;;;3.90;1.83;;;13.70;99.90;;;;;;5033589;28;20045;-60
2023/05/20 00:26:13;;;;;;;4.15;1.60;;;13.80;99.90;;;;;;5048425;28;20494;-60
2023/05/20 00:28:41;;;;;;;3.70;1.52;;;14.00;99.90;;;;;;5025831;28;20068;-52
2023/05/20 00:31:08;;;;;;;2.60;1.50;;;14.20;99.90;;;;;;5031611;28;20025;-57
2023/05/20 00:33:36;;;;;;;4.88;1.50;;;14.30;99.90;;;;;;5046318;28;20351;-53
2023/05/20 00:36:04;;;;;;;3.45;1.55;;;14.40;99.90;;;;;;5048136;28;20040;-53
2023/05/20 00:38:32;;;;;;;9.90;2.35;;;14.60;99.90;;;;;;5039673;28;20023;-56
2023/05/20 00:41:00;;;;;;;3.50;1.30;;;14.80;99.90;;;;;;5042647;28;20025;-59
2023/05/20 00:43:27;;;;;;;2.08;1.30;;;15.00;99.90;;;;;;5047741;28;20043;-61
2023/05/20 00:45:55;;;;;;;2.72;1.30;;;15.00;99.90;;;;;;5047314;28;20025;-61
2023/05/20 00:48:23;;;;;;;2.97;1.35;;;15.10;99.90;;;;;;5028264;28;20075;-67
2023/05/20 00:50:51;;;;;;;4.53;1.42;;;15.20;99.90;;;;;;5026935;28;20424;-67
2023/05/20 00:53:20;;;;;;;3.08;1.13;;;15.30;99.90;;;;;;5048618;28;20013;-67
2023/05/20 00:55:47;;;;;;;3.25;1.55;;;15.30;99.90;;;;;;5049730;28;20032;-67
2023/05/20 00:58:15;;;;;;;2.50;0.90;;;15.50;99.90;;;;;;5049330;28;20517;-66
2023/05/20 01:00:43;;;;;;;1.65;1.10;;;15.60;99.90;;;;;;5045619;28;20100;-66
2023/05/20 01:03:10;;;;;;;1.67;0.70;;;15.70;99.90;;;;;;5041775;28;20060;-63
2023/05/20 01:05:38;;;;;;;3.45;0.90;;;15.80;99.80;;;;;;5044519;28;20022;-63
2023/05/20 01:08:05;;;;;;;3.50;0.77;;;15.80;99.60;;;;;;5045262;28;20040;-65
2023/05/20 01:10:36;;;;;;;4.78;1.02;;;15.90;98.00;;;;;;5040957;28;20429;-64
2023/05/20 01:13:08;;;;;;;2.92;0.70;;;15.90;95.90;;;;;;5042772;28;20535;-65
2023/05/20 01:15:36;;;;;;;2.88;0.80;;;16.00;95.50;;;;;;5030897;28;20050;-65
2023/05/20 01:18:09;;;;;;;2.33;1.00;;;15.90;94.90;;;;;;5046660;28;20029;-67
2023/05/20 01:20:38;;;;;;;1.23;0.60;;;15.90;95.20;;;;;;5040667;28;20025;-64
2023/05/20 01:23:05;;;;;;;2.38;0.88;;;16.00;95.60;;;;;;5043506;28;20033;-65
2023/05/20 01:25:33;;;;;;;3.38;0.70;;;16.20;96.00;;;;;;5042504;28;20033;-63
2023/05/20 01:28:00;;;;;;;1.13;0.55;;;16.30;95.20;;;;;;5047607;28;20024;-65
2023/05/20 01:30:34;;;;;;;1.13;0.55;;;16.40;94.20;;;;;;5048430;28;20382;-65
2023/05/20 01:33:08;;;;;;;2.47;0.73;;;16.40;93.30;;;;;;5048537;28;20020;-66
2023/05/20 01:35:36;;;;;;;1.20;0.60;;;16.40;93.20;;;;;;5030134;28;20047;-65
2023/05/20 01:38:06;;;;;;;1.27;0.50;;;16.50;92.10;;;;;;5045876;28;20274;-64
2023/05/20 01:40:35;;;;;;;1.77;0.63;;;16.40;91.50;;;;;;5043878;28;20056;-64
2023/05/20 01:43:03;;;;;;;1.10;0.60;;;16.40;91.70;;;;;;5045234;28;20021;-63
2023/05/20 01:45:31;;;;;;;0.80;0.43;;;16.40;92.10;;;;;;5044938;28;20021;-67
2023/05/20 01:48:00;;;;;;;0.75;0.50;;;16.60;91.70;;;;;;5038938;28;20033;-67
2023/05/20 01:50:27;;;;;;;2.80;0.70;;;16.70;90.60;;;;;;5047906;28;20037;-65
2023/05/20 01:52:55;;;;;;;1.05;0.70;;;16.70;90.10;;;;;;5045954;28;20119;-64
2023/05/20 01:55:23;;;;;;;0.65;0.50;;;16.80;91.80;;;;;;5042707;28;20041;-65
2023/05/20 01:57:51;;;;;;;1.77;0.50;;;16.90;90.60;;;;;;5030660;28;20060;-65
2023/05/20 02:00:18;;;;;;;1.10;0.52;;;17.00;89.00;;;;;;5041547;28;20108;-64
2023/05/20 02:02:46;;;;;;;6.95;0.57;;;17.00;88.40;;;;;;5021887;28;20174;-62
2023/05/20 02:05:13;;;;;;;1.98;0.55;;;17.00;87.40;;;;;;5044583;28;20082;-62
2023/05/20 02:07:41;;;;;;;1.90;0.80;;;17.00;88.90;;;;;;5025568;28;20120;-61
2023/05/20 02:10:09;;;;;;;2.70;0.65;;;17.10;90.50;;;;;;5051023;28;20040;-61
2023/05/20 02:12:36;;;;;;;1.17;0.63;;;17.20;85.80;;;;;;5039342;28;20040;-60
2023/05/20 02:15:04;;;;;;;1.90;0.75;;;17.20;84.80;;;;;;5036132;28;20056;-60
2023/05/20 02:17:32;;;;;;;6.05;0.90;;;17.30;84.20;;;;;;5040835;28;20023;-60
2023/05/20 02:19:59;;;;;;;2.08;0.73;;;17.30;83.90;;;;;;5045409;28;20013;-60
2023/05/20 02:22:27;;;;;;;1.58;0.50;;;17.30;85.00;;;;;;5033974;28;20034;-59
2023/05/20 02:24:54;;;;;;;0.98;0.50;;;17.40;86.10;;;;;;5041722;28;20021;-60
2023/05/20 02:27:22;;;;;;;4.05;0.45;;;17.60;83.90;;;;;;5039731;28;20265;-60
2023/05/20 02:29:49;;;;;;;0.90;0.35;;;17.60;82.70;;;;;;5038355;28;20389;-59
2023/05/20 02:32:17;;;;;;;1.48;0.80;;;17.60;82.30;;;;;;5039394;28;20086;-59
2023/05/20 02:34:44;;;;;;;1.55;1.10;;;17.60;83.30;;;;;;5024439;28;20098;-60
2023/05/20 02:37:12;;;;;;;4.13;0.85;;;17.70;84.30;;;;;;5036995;28;20033;-61
2023/05/20 02:39:39;;;;;;;2.72;0.63;;;17.70;82.30;;;;;;5037188;28;20021;-60
2023/05/20 02:42:07;;;;;;;1.73;0.85;;;17.80;82.70;;;;;;5037484;28;20025;-59
2023/05/20 02:44:34;;;;;;;1.33;0.70;;;17.70;81.50;;;;;;5037962;28;20036;-60
2023/05/20 02:47:02;;;;;;;0.73;0.63;;;17.50;83.10;;;;;;5042228;28;20055;-60
2023/05/20 02:49:29;;;;;;;1.45;0.60;;;17.40;83.80;;;;;;5037530;28;20036;-59
2023/05/20 02:51:57;;;;;;;1.20;0.60;;;17.30;84.20;;;;;;5042707;28;20099;-59
2023/05/20 02:54:24;;;;;;;0.47;0.40;;;17.50;86.60;;;;;;5016792;28;20031;-60
2023/05/20 02:56:52;;;;;;;1.17;0.50;;;17.50;84.00;;;;;;5017813;28;20518;-61
2023/05/20 02:59:20;;;;;;;1.50;0.50;;;17.50;81.90;;;;;;5038909;28;20404;-61
2023/05/20 03:01:47;;;;;;;1.58;0.50;;;17.50;81.20;;;;;;5035421;28;20391;-62
2023/05/20 03:04:15;;;;;;;4.03;0.73;;;17.50;82.60;;;;;;5035106;28;20029;-61
2023/05/20 03:06:43;;;;;;;5.60;1.13;;;17.50;83.10;;;;;;5036586;28;20017;-62
2023/05/20 03:09:10;;;;;;;0.50;0.30;;;17.50;86.90;;;;;;5018299;28;20039;-65
2023/05/20 03:11:38;;;;;;;2.83;0.45;;;17.40;80.20;;;;;;5034613;28;20017;-61
2023/05/20 03:14:05;;;;;;;2.08;0.60;;;17.30;80.30;;;;;;5034075;28;20083;-60
2023/05/20 03:16:34;;;;;;;1.48;0.45;;;17.30;82.20;;;;;;5035617;28;20124;-61
2023/05/20 03:19:02;;;;;;;1.58;1.10;;;17.30;82.40;;;;;;5038588;28;20024;-61
2023/05/20 03:21:29;;;;;;;3.70;0.60;;;17.40;82.20;;;;;;5022972;28;20036;-59
2023/05/20 03:23:57;;;;;;;5.28;0.80;;;17.60;83.90;;;;;;5044733;28;20489;-59
2023/05/20 03:26:24;;;;;;;3.30;0.60;;;17.70;82.40;;;;;;5029333;28;20032;-59
2023/05/20 03:28:52;;;;;;;1.45;0.38;;;17.90;82.10;;;;;;5046008;28;20033;-60
2023/05/20 03:31:19;;;;;;;2.40;0.65;;;18.10;82.50;;;;;;5036387;28;20032;-59
2023/05/20 03:33:47;;;;;;;0.70;0.40;;;18.20;79.60;;;;;;5034614;28;20025;-59
2023/05/20 03:36:14;;;;;;;0.43;0.30;;;18.20;76.90;;;;;;5044528;28;20115;-58
2023/05/20 03:38:42;;;;;;;2.15;0.30;;;18.20;76.50;;;;;;5042122;28;20013;-59
2023/05/20 03:41:09;;;;;;;0.57;0.30;;;18.30;80.00;;;;;;5043906;28;20363;-58
2023/05/20 03:43:37;;;;;;;5.80;0.60;;;18.40;79.20;;;;;;5029910;28;20020;-58
2023/05/20 03:46:05;;;;;;;1.60;0.60;;;18.50;76.70;;;;;;5043339;28;20029;-58
2023/05/20 03:48:32;;;;;;;2.45;0.52;;;18.50;75.90;;;;;;5043732;28;20508;-59
2023/05/20 03:51:00;;;;;;;1.15;0.50;;;18.50;76.70;;;;;;5038041;28;20037;-59
2023/05/20 03:53:28;;;;;;;0.73;0.30;;;18.60;76.50;;;;;;5049082;28;20092;-59
2023/05/20 03:55:55;;;;;;;0.40;0.30;;;18.50;72.90;;;;;;5021457;28;20041;-58
2023/05/20 03:58:24;;;;;;;0.40;0.40;;;18.10;74.00;;;;;;5041735;28;20108;-59
2023/05/20 04:00:51;;;;;;;2.72;0.50;;;18.00;75.70;;;;;;5024170;28;20494;-59
2023/05/20 04:03:19;;;;;;;1.45;0.50;;;18.00;76.50;;;;;;5046300;28;20029;-59
2023/05/20 04:05:46;;;;;;;2.15;0.65;;;18.00;73.50;;;;;;5028429;28;20066;-59
2023/05/20 04:08:14;;;;;;;1.70;0.47;;;18.10;73.90;;;;;;5043344;28;20040;-59
2023/05/20 04:10:42;;;;;;;1.10;0.47;;;18.10;73.70;;;;;;5046371;28;20025;-59
2023/05/20 04:13:10;;;;;;;1.98;0.50;;;18.20;74.50;;;;;;5044806;28;20013;-58
2023/05/20 04:15:38;;;;;;;1.60;0.63;;;18.30;74.30;;;;;;5037812;28;20033;-59
2023/05/20 04:18:06;;;;;;;1.02;0.40;;;18.30;74.90;;;;;;5044054;28;20029;-57
2023/05/20 04:20:33;;;;;;;0.95;0.40;;;18.40;73.40;;;;;;5039024;28;20159;-58
2023/05/20 04:23:01;;;;;;;1.98;0.30;;;18.40;75.00;;;;;;5045023;28;20025;-59
2023/05/20 04:25:28;;;;;;;1.20;0.40;;;18.60;73.80;;;;;;5031081;28;20112;-59
2023/05/20 04:27:56;;;;;;;1.48;0.40;;;18.60;72.80;;;;;;5048288;28;20390;-59
2023/05/20 04:30:24;;;;;;;0.52;0.40;;;18.60;72.50;;;;;;5042406;28;20032;-59
2023/05/20 04:32:52;;;;;;;1.50;0.73;;;18.60;75.10;;;;;;5039710;28;20021;-60
2023/05/20 04:35:20;;;;;;;1.33;0.40;;;18.60;72.70;;;;;;5025438;28;20498;-59
2023/05/20 04:37:47;;;;;;;0.32;0.25;;;18.70;71.70;;;;;;5016853;28;20176;-60
2023/05/20 04:40:15;;;;;;;1.05;0.47;;;18.80;71.50;;;;;;5047498;28;20056;-59
2023/05/20 04:42:43;;;;;;;1.08;0.45;;;19.00;72.50;;;;;;5021884;28;20033;-59
2023/05/20 04:45:11;;;;;;;0.73;0.40;;;18.80;70.00;;;;;;5017725;28;20026;-60
2023/05/20 04:47:40;;;;;;;0.22;0.20;;;18.70;69.10;;;;;;5042426;28;20060;-59
2023/05/20 04:50:09;;;;;;;0.80;0.38;;;18.60;71.00;;;;;;5022717;28;20387;-60
2023/05/20 04:52:44;;;;;;;4.13;0.47;;;18.60;72.20;;;;;;5020955;28;20120;-59
2023/05/20 04:55:12;;;;;;;1.80;0.40;;;18.50;70.10;;;;;;5027176;28;20030;-59
2023/05/20 04:57:43;;;;;;;0.60;0.43;;;18.30;70.40;;;;;;5028568;28;20022;-59
2023/05/20 05:00:12;;;;;;;1.00;0.40;;;18.10;70.60;;;;;;5019420;28;20018;-59
2023/05/20 05:02:39;;;;;;;2.58;0.30;;;17.90;73.60;;;;;;5014132;28;20038;-59
2023/05/20 05:05:07;;;;;;;0.47;0.30;;;17.70;73.90;;;;;;5030425;28;20501;-59
2023/05/20 05:07:35;;;;;;;0.20;0.20;;;17.50;74.80;;;;;;5030448;28;20387;-59
2023/05/20 05:10:03;;;;;;;1.17;0.50;;;17.50;74.40;;;;;;5025669;28;20502;-58
2023/05/20 05:12:30;;;;;;;1.67;0.40;;;17.60;75.10;;;;;;5027312;28;20022;-59
2023/05/20 05:14:58;;;;;;;0.60;0.50;;;17.70;75.00;;;;;;5025409;28;20044;-59
2023/05/20 05:17:27;;;;;;;4.95;0.40;;;17.60;74.20;;;;;;5030611;28;20076;-59
2023/05/20 05:19:54;;;;;;;3.60;0.70;;;17.40;74.20;;;;;;5028627;28;20032;-59
2023/05/20 05:22:22;;;;;;;2.05;0.60;;;17.20;74.30;;;;;;5030118;28;20029;-59
2023/05/20 05:24:49;;;;;;;0.77;0.35;;;17.10;75.80;;;;;;5028354;28;20360;-59
2023/05/20 05:27:17;;;;;;;0.88;0.20;;;17.00;76.40;;;;;;5025959;28;20075;-59
2023/05/20 05:29:44;;;;;;;0.93;0.35;;;16.90;76.40;;;;;;5026420;28;20379;-59
2023/05/20 05:32:12;;;;;;;2.90;0.52;;;16.90;76.60;;;;;;5030072;28;20072;-59
2023/05/20 05:34:39;;;;;;;1.67;1.33;;;16.90;78.40;;;;;;5020853;28;20103;-59
2023/05/20 05:37:07;;;;;;;0.80;0.30;;;16.90;78.20;;;;;;5015043;28;20113;-59
2023/05/20 05:39:36;;;;;;;0.30;0.28;;;16.90;75.90;;;;;;5025000;28;20022;-62
2023/05/20 05:42:04;;;;;;;8.77;0.52;;;16.90;75.70;;;;;;5016959;28;20052;-61
2023/05/20 05:44:32;;;;;;;0.60;0.40;;;16.90;72.80;;;;;;5018997;28;20017;-65
2023/05/20 05:46:59;;;;;;;1.98;0.40;;;16.80;72.40;;;;;;5021230;28;20174;-61
2023/05/20 05:49:27;;;;;;;5.55;0.57;;;16.80;70.50;;;;;;5030054;28;20131;-61
2023/05/20 05:51:54;;;;;;;6.38;0.70;;;16.70;71.40;;;;;;5041191;28;20394;-61
2023/05/20 05:54:22;;;;;;;5.63;1.42;;;16.70;72.40;;;;;;5036764;28;20731;-61
2023/05/20 05:56:55;;;;;;;1.25;0.32;;;16.60;73.80;;;;;;5041736;28;20335;-62
2023/05/20 05:59:22;;;;;;;0.57;0.40;;;16.50;72.30;;;;;;5027058;28;20033;-61
2023/05/20 06:01:50;;;;;;;0.55;0.35;;;16.40;74.30;;;;;;5043421;28;20493;-61
2023/05/20 06:04:17;;;;;;;0.80;0.40;;;16.30;73.50;;;;;;5041825;28;20021;-61
2023/05/20 06:06:45;;;;;;;1.25;0.50;;;16.30;74.50;;;;;;5042780;28;20115;-61
2023/05/20 06:09:12;;;;;;;0.98;0.43;;;16.20;75.20;;;;;;5041238;28;20045;-61
2023/05/20 06:11:41;;;;;;;1.10;0.40;;;16.10;75.80;;;;;;5043523;28;20025;-60
2023/05/20 06:14:08;;;;;;;0.90;0.50;;;16.00;76.80;;;;;;5039065;28;20079;-61
2023/05/20 06:16:36;;;;;;;0.80;0.55;;;15.90;76.30;;;;;;5021786;28;20045;-61
2023/05/20 06:19:04;;;;;;;1.30;0.45;;;15.90;76.80;;;;;;5028038;28;20123;-60
2023/05/20 06:21:32;;;;;;;1.33;0.60;;;15.70;77.60;;;;;;5044957;28;20019;-60
2023/05/20 06:24:00;;;;;;;2.28;0.60;;;15.70;77.30;;;;;;5025484;28;20437;-60
2023/05/20 06:26:27;;;;;;;0.47;0.40;;;15.60;77.20;;;;;;5024615;28;20972;-59
2023/05/20 06:28:54;;;;;;;1.88;0.60;;;15.50;78.20;;;;;;5036268;28;20047;-59
2023/05/20 06:31:22;;;;;;;0.60;0.40;;;15.40;78.90;;;;;;5035278;28;20022;-61
2023/05/20 06:33:49;;;;;;;1.45;0.50;;;15.20;79.90;;;;;;5040364;28;20075;-60
2023/05/20 06:36:17;;;;;;;1.02;0.50;;;15.10;80.30;;;;;;5021483;28;20067;-60
2023/05/20 06:38:45;;;;;;;0.63;0.40;;;15.00;80.70;;;;;;5041105;28;20033;-60
2023/05/20 06:41:13;;;;;;;0.77;0.63;;;14.90;82.30;;;;;;5037478;28;20471;-61
2023/05/20 06:43:40;;;;;;;1.10;0.40;;;14.70;82.90;;;;;;5022989;28;20025;-61
2023/05/20 06:46:07;;;;;;;3.10;0.70;;;14.50;83.80;;;;;;5016871;28;20022;-61
2023/05/20 06:48:36;;;;;;;0.82;0.50;;;14.40;85.00;;;;;;5036387;28;20568;-60
2023/05/20 06:51:04;;;;;;;0.88;0.47;;;14.20;86.40;;;;;;5035358;28;20380;-61
2023/05/20 06:53:32;;;;;;;1.73;0.75;;;14.00;87.50;;;;;;5039407;28;20091;-63
2023/05/20 06:55:59;;;;;;;1.23;0.55;;;13.90;89.30;;;;;;5039751;28;20026;-61
2023/05/20 06:58:27;;;;;;;1.48;0.60;;;13.80;89.20;;;;;;5034003;28;20021;-60
2023/05/20 07:00:55;;;;;;;1.30;0.80;;;13.70;90.30;;;;;;5044500;28;20033;-60
2023/05/20 07:03:23;;;;;;;1.45;0.95;;;13.50;90.90;;;;;;5052842;28;20088;-61
2023/05/20 07:05:51;;;;;;;1.50;0.82;;;13.40;91.30;;;;;;5045548;28;20033;-60
2023/05/20 07:08:19;;;;;;;4.43;1.30;;;13.20;92.20;;;;;;5032530;28;20151;-60
2023/05/20 07:10:46;;;;;;;1.75;0.70;;;13.10;92.70;;;;;;5024367;28;20501;-60
2023/05/20 07:13:14;;;;;;;2.58;0.90;;;12.90;93.60;;;;;;5053625;28;20028;-59
2023/05/20 07:15:45;;;;;;;2.25;1.10;;;12.80;94.80;;;;;;5032881;28;20068;-62
2023/05/20 07:18:13;;;;;;;2.92;1.02;;;12.70;95.20;;;;;;5052799;28;20033;-61
2023/05/20 07:20:40;;;;;;;2.10;0.98;;;12.70;96.00;;;;;;5052537;28;20021;-60
2023/05/20 07:23:08;;;;;;;5.78;1.45;;;12.50;96.00;;;;;;5052534;28;20100;-61
2023/05/20 07:25:36;;;;;;;2.63;1.25;;;12.40;96.90;;;;;;5052523;28;20029;-60
2023/05/20 07:28:04;;;;;;;1.63;1.10;;;12.30;97.80;;;;;;5052405;28;20047;-61
2023/05/20 07:30:32;;;;;;;4.45;1.40;;;12.20;98.30;;;;;;5031260;28;20390;-60
2023/05/20 07:32:59;;;;;;;3.95;1.40;;;12.20;99.30;;;;;;5031735;28;20028;-61
2023/05/20 07:35:27;;;;;;;6.25;1.95;;;12.20;99.80;;;;;;5032478;28;20029;-60
2023/05/20 07:37:54;;;;;;;2.97;1.80;;;12.20;99.60;;;;;;5032528;28;20471;-60
2023/05/20 07:40:22;;;;;;;2.83;1.42;;;12.10;99.90;;;;;;5032390;28;20029;-60
2023/05/20 07:42:49;;;;;;;5.28;2.05;;;12.10;99.90;;;;;;5032135;28;20664;-61
2023/05/20 07:45:16;;;;;;;2.50;1.30;;;12.00;99.90;;;;;;5032296;28;20026;-60
2023/05/20 07:47:43;;;;;;;3.33;1.65;;;11.90;99.90;;;;;;5032358;28;20029;-61
2023/05/20 07:50:12;;;;;;;5.72;2.00;;;11.90;99.90;;;;;;5035589;28;20467;-61
2023/05/20 07:52:39;;;;;;;4.53;2.35;;;11.70;99.90;;;;;;5051273;28;20036;-61
2023/05/20 07:55:07;;;;;;;3.70;2.10;;;11.60;99.90;;;;;;5051406;28;20080;-61
2023/05/20 07:57:34;;;;;;;4.72;1.92;;;11.50;99.90;;;;;;5043782;28;20096;-62
2023/05/20 08:00:01;;;;;;;3.47;1.75;;;11.40;99.90;;;;;;5031865;28;20071;-61
2023/05/20 08:02:28;;;;;;;3.22;2.20;;;11.30;99.90;;;;;;5014296;28;20036;-62
2023/05/20 08:04:56;;;;;;;4.65;2.63;;;11.20;99.90;;;;;;5031385;28;20018;-61
2023/05/20 08:07:23;;;;;;;5.55;2.97;;;11.00;99.90;;;;;;5031262;28;20101;-61
2023/05/20 08:09:51;;;;;;;5.70;2.50;;;11.00;99.90;;;;;;5032857;28;20089;-62
2023/05/20 08:12:18;;;;;;;3.97;2.13;;;10.90;99.90;;;;;;5051259;28;20545;-62
2023/05/20 08:14:45;;;;;;;6.20;2.78;;;10.80;99.90;;;;;;5032926;28;20082;-61
2023/05/20 08:17:13;;;;;;;6.65;2.70;;;10.60;99.90;;;;;;5051049;28;20037;-62
2023/05/20 08:19:40;;;;;;;6.15;2.63;;;10.50;99.90;;;;;;5050680;28;20355;-61
2023/05/20 08:22:07;;;;;;;6.70;3.92;;;10.40;99.90;;;;;;5032421;28;20025;-61
2023/05/20 08:24:35;;;;;;;5.13;2.83;;;10.20;99.90;;;;;;5050420;28;20060;-61
2023/05/20 08:27:03;;;;;;;6.95;2.95;;;10.10;99.90;;;;;;5051010;28;20017;-61
2023/05/20 08:29:30;;;;;;;5.97;2.92;;;9.90;99.90;;;;;;5051253;28;20028;-61
2023/05/20 08:31:57;;;;;;;5.95;2.83;;;9.80;99.90;;;;;;5050473;28;20398;-61
2023/05/20 08:34:24;;;;;;;6.20;3.05;;;9.70;99.90;;;;;;5050652;28;20033;-61
2023/05/20 08:36:52;;;;;;;3.95;2.42;;;9.50;99.90;;;;;;5050473;28;20025;-62
2023/05/20 08:39:19;;;;;;;3.22;2.30;;;9.50;99.90;;;;;;5050528;28;20017;-61
2023/05/20 08:41:47;;;;;;;6.18;3.17;;;9.40;99.90;;;;;;5050475;28;20025;-61
2023/05/20 08:44:16;;;;;;;6.78;3.03;;;9.30;99.90;;;;;;5032533;28;20024;-61
2023/05/20 08:46:43;;;;;;;5.65;2.55;;;9.20;99.90;;;;;;5050460;28;20052;-61
2023/05/20 08:49:10;;;;;;;7.32;2.83;;;9.20;99.90;;;;;;5050222;28;20041;-61
2023/05/20 08:51:39;;;;;;;5.80;3.05;;;9.10;99.90;;;;;;5032474;28;20029;-61
2023/05/20 08:54:08;;;;;;;5.10;2.35;;;9.10;99.90;;;;;;5050380;28;20036;-62
2023/05/20 08:56:36;;;;;;;4.57;2.20;;;9.10;99.90;;;;;;5031903;28;20037;-62
2023/05/20 08:59:05;;;;;;;6.40;2.58;;;9.10;99.90;;;;;;5050471;28;20032;-62
2023/05/20 09:01:35;;;;;;;5.38;3.38;;;9.00;99.90;;;;;;5050602;28;20386;-62
2023/05/20 09:04:03;;;;;;;6.45;3.35;;;8.90;99.90;;;;;;5050521;28;20017;-62
2023/05/20 09:06:41;;;;;;;6.35;3.95;;;8.90;99.90;;;;;;5050533;28;20028;-62
2023/05/20 09:09:09;;;;;;;20.15;6.95;;;8.80;99.90;;;;;;5046447;28;20104;-61
2023/05/20 09:11:37;;;;;;;14.27;6.60;;;8.80;99.90;;;;;;5046043;28;20040;-61
2023/05/20 09:14:04;;;;;;;13.00;6.15;;;8.80;99.90;;;;;;5050083;28;20099;-60
2023/05/20 09:16:31;;;;;;;11.15;5.47;;;9.00;99.90;;;;;;5046620;28;20028;-61
2023/05/20 09:18:59;;;;;;;9.25;5.18;;;9.20;99.90;;;;;;5053201;28;20593;-61
2023/05/20 09:21:29;;;;;;;19.17;10.20;;;9.40;99.90;;;;;;5061438;28;20021;-61
2023/05/20 09:23:58;;;;;;;11.13;7.20;;;9.70;99.90;;;;;;5042106;28;20040;-61
2023/05/20 09:26:31;;;;;;;10.10;4.88;;;9.60;99.90;;;;;;5044664;28;20354;-61
2023/05/20 09:28:59;;;;;;;9.53;4.87;;;9.60;99.90;;;;;;5031581;28;20037;-61
2023/05/20 09:31:34;;;;;;;9.20;4.25;;;9.60;99.90;;;;;;5048037;28;20685;-62
2023/05/20 09:34:02;;;;;;;10.40;4.13;;;9.60;99.90;;;;;;5028554;28;20116;-62
2023/05/20 09:36:33;;;;;;;7.60;3.70;;;9.80;99.90;;;;;;5049430;28;20040;-62
2023/05/20 09:39:03;;;;;;;8.05;3.90;;;9.80;99.90;;;;;;5033748;28;20021;-62
2023/05/20 09:41:38;;;;;;;8.77;3.90;;;9.80;99.90;;;;;;5028232;28;20417;-62
2023/05/20 09:44:06;;;;;;;6.95;3.78;;;9.70;99.90;;;;;;5028273;28;20078;-62
2023/05/20 09:46:35;;;;;;;8.75;4.22;;;9.60;99.90;;;;;;5028428;28;20083;-62
2023/05/20 09:49:05;;;;;;;8.63;4.05;;;9.40;99.90;;;;;;5034172;28;20044;-61
2023/05/20 09:51:34;;;;;;;7.95;4.38;;;9.20;99.90;;;;;;5049747;28;20029;-62
2023/05/20 09:54:03;;;;;;;11.52;4.78;;;9.00;99.90;;;;;;5031474;28;20501;-61
2023/05/20 09:56:31;;;;;;;8.55;4.15;;;8.80;99.90;;;;;;5049287;28;20170;-62
2023/05/20 09:59:00;;;;;;;9.40;4.10;;;8.70;99.90;;;;;;5048781;28;20033;-61
2023/05/20 10:01:28;;;;;;;9.20;4.40;;;8.50;99.90;;;;;;5031050;28;20029;-61
2023/05/20 10:03:57;;;;;;;8.35;4.10;;;8.30;99.90;;;;;;5049045;28;20083;-61
2023/05/20 10:06:51;;;;;;;9.05;4.85;;;8.20;99.90;;;;;;5030911;28;20386;-61
2023/05/20 10:09:36;;;;;;;10.65;5.75;;;8.20;99.90;;;;;;5049074;28;20386;-61
2023/05/20 10:12:16;;;;;;;12.15;6.72;;;8.10;99.90;;;;;;5049253;28;20490;-61
2023/05/20 10:14:50;;;;;;;11.82;5.93;;;8.10;99.90;;;;;;5048854;28;20086;-61
2023/05/20 10:17:24;;;;;;;13.95;6.47;;;8.10;99.90;;;;;;5048904;28;20033;-61
2023/05/20 10:19:58;;;;;;;9.75;5.72;;;8.10;99.90;;;;;;5030979;28;20036;-61
2023/05/20 10:22:32;;;;;;;7.75;4.20;;;8.00;99.90;;;;;;5048770;28;20186;-61
2023/05/20 10:25:07;;;;;;;10.85;5.05;;;8.00;99.90;;;;;;5047802;28;20442;-61
2023/05/20 10:27:44;;;;;;;;;;;8.00;99.90;;;;;;5049820;28;20374;-61
2023/05/20 10:30:22;;;;;;;8.60;5.20;;;7.90;99.90;;;;;;5048731;28;19912;-60
2023/05/20 10:32:59;;;;;;;10.27;5.05;;;7.80;99.90;;;;;;5048732;28;20497;-60
2023/05/20 10:35:27;;;;;;;9.18;4.78;;;7.80;99.90;;;;;;5043901;28;20042;-61
2023/05/20 10:38:07;;;;;;;8.10;4.55;;;7.70;99.90;;;;;;5048726;28;20356;-60
2023/05/20 10:40:34;;;;;;;9.57;4.93;;;7.70;99.90;;;;;;5048978;28;20017;-61
2023/05/20 10:43:12;;;;;;;14.10;6.38;;;7.50;99.90;;;;;;5031123;28;20547;-61
2023/05/20 10:45:58;;;;;;;9.80;5.95;;;7.50;99.90;;;;;;5048568;28;20056;-61
2023/05/20 10:48:29;;;;;;;13.98;5.85;;;7.50;99.90;;;;;;5032647;28;20033;-61
2023/05/20 10:50:58;;;;;;;10.25;5.90;;;7.40;99.90;;;;;;5024559;28;20400;-60
2023/05/20 10:53:27;;;;;;;27.70;12.95;;;7.40;99.90;;;;;;5032759;28;20072;-61
2023/05/20 10:55:55;;;;;;;27.17;13.48;;;7.30;99.90;;;;;;5032412;28;20088;-61
2023/05/20 10:58:24;;;;;;;22.50;12.57;;;7.30;99.90;;;;;;5032476;28;20052;-61
2023/05/20 11:00:54;;;;;;;15.93;7.13;;;7.30;99.90;;;;;;5030974;28;20057;-60
2023/05/20 11:03:23;;;;;;;12.50;6.30;;;7.30;99.90;;;;;;5032677;28;20056;-60
2023/05/20 11:05:51;;;;;;;11.23;6.22;;;7.40;99.90;;;;;;5032534;28;20056;-62
2023/05/20 11:08:18;;;;;;;9.15;5.65;;;7.40;99.90;;;;;;5032476;28;20108;-61
2023/05/20 11:10:46;;;;;;;12.68;6.35;;;7.40;99.90;;;;;;5033774;28;20036;-61
2023/05/20 11:13:14;;;;;;;15.50;7.38;;;7.40;99.90;;;;;;5051802;28;20021;-60
2023/05/20 11:15:42;;;;;;;13.25;6.72;;;7.40;99.90;;;;;;5052156;28;20056;-60
2023/05/20 11:18:13;;;;;;;13.43;6.65;;;7.30;99.90;;;;;;5052175;28;20059;-61
2023/05/20 11:20:40;;;;;;;13.55;6.30;;;7.30;99.90;;;;;;5052052;28;20470;-61
2023/05/20 11:23:13;;;;;;;11.70;6.03;;;7.20;99.90;;;;;;5052058;28;20083;-61
2023/05/20 11:25:41;;;;;;;12.18;5.97;;;7.20;99.90;;;;;;5036653;28;20021;-61
2023/05/20 11:28:15;;;;;;;11.32;6.32;;;7.10;99.90;;;;;;5032047;28;20057;-61
2023/05/20 11:30:46;;;;;;;8.75;5.85;;;7.20;99.90;;;;;;5031981;28;20109;-61
2023/05/20 11:33:15;;;;;;;9.32;5.45;;;7.10;99.90;;;;;;5040383;28;20029;-62
2023/05/20 11:35:50;;;;;;;7.75;4.05;;;7.10;99.90;;;;;;5051655;28;20397;-61
2023/05/20 11:38:18;;;;;;;;;;;7.10;99.90;;;;;;5034525;28;20038;-61
2023/05/20 11:40:52;;;;;;;7.75;4.47;;;7.10;99.90;;;;;;5031586;28;19992;-61
2023/05/20 11:43:20;;;;;;;13.80;5.45;;;7.00;99.90;;;;;;5014136;28;20076;-61
2023/05/20 11:46:00;;;;;;;10.68;4.57;;;7.00;99.90;;;;;;5020799;28;20071;-61
2023/05/20 11:48:27;;;;;;;9.50;5.10;;;7.00;99.90;;;;;;5047530;28;20028;-62
2023/05/20 11:50:56;;;;;;;12.50;5.80;;;6.90;99.90;;;;;;5051489;28;20398;-62
2023/05/20 11:53:25;;;;;;;10.32;5.03;;;6.70;99.90;;;;;;5051475;28;20025;-62
2023/05/20 11:56:00;;;;;;;9.43;4.60;;;6.70;99.90;;;;;;5050906;28;20040;-62
2023/05/20 11:58:30;;;;;;;7.65;4.65;;;6.60;99.90;;;;;;5051050;28;20078;-62
2023/05/20 12:00:58;;;;;;;9.77;3.60;;;6.60;99.90;;;;;;5033516;28;20060;-61
2023/05/20 12:03:26;;;;;;;8.50;4.25;;;6.60;99.90;;;;;;5051373;28;20394;-61
2023/05/20 12:05:53;;;;;;;8.18;4.03;;;6.50;99.90;;;;;;5051119;28;20039;-61
2023/05/20 12:08:21;;;;;;;10.07;4.40;;;6.50;99.90;;;;;;5050872;28;20035;-62
2023/05/20 12:10:49;;;;;;;11.90;4.53;;;6.50;99.90;;;;;;5050756;28;20375;-62
2023/05/20 12:13:18;;;;;;;8.18;4.20;;;6.50;99.90;;;;;;5051174;28;20021;-61
2023/05/20 12:15:45;;;;;;;7.25;4.00;;;6.50;99.90;;;;;;5035718;28;20025;-62
2023/05/20 12:18:12;;;;;;;13.50;5.82;;;6.50;99.90;;;;;;5071025;28;20107;-62
2023/05/20 12:20:40;;;;;;;8.48;4.57;;;6.50;99.90;;;;;;5046031;28;20155;-61
2023/05/20 12:23:08;;;;;;;5.40;3.45;;;6.50;99.90;;;;;;5050951;28;20028;-59
2023/05/20 12:25:35;;;;;;;8.02;4.53;;;6.50;99.90;;;;;;5051044;28;20025;-60
2023/05/20 12:28:03;;;;;;;6.53;3.70;;;6.50;99.90;;;;;;5050573;28;20112;-61
2023/05/20 12:30:30;;;;;;;9.52;4.43;;;6.50;99.90;;;;;;5050616;28;20028;-61
2023/05/20 12:32:58;;;;;;;8.50;4.40;;;6.50;99.90;;;;;;5025243;28;20116;-59
2023/05/20 12:35:36;;;;;;;7.70;4.22;;;6.40;99.90;;;;;;5045060;28;20022;-61
2023/05/20 12:38:04;;;;;;;10.40;4.72;;;6.50;99.90;;;;;;5038159;28;20042;-60
2023/05/20 12:40:32;;;;;;;16.65;4.60;;;6.40;99.90;;;;;;5023795;28;20583;-64
2023/05/20 12:43:01;;;;;;;14.25;4.97;;;6.30;99.90;;;;;;5047066;28;20029;-62
2023/05/20 12:45:29;;;;;;;8.65;5.30;;;6.30;99.90;;;;;;5035751;28;20142;-61
2023/05/20 12:47:57;;;;;;;12.95;4.75;;;6.30;99.90;;;;;;5070369;28;20737;-61
2023/05/20 12:50:25;;;;;;;10.45;4.97;;;6.30;99.90;;;;;;5047149;28;20045;-62
2023/05/20 12:52:52;;;;;;;11.60;5.80;;;6.30;99.90;;;;;;5049005;28;20085;-62
2023/05/20 12:55:20;;;;;;;13.10;6.30;;;6.30;99.90;;;;;;5044042;28;20021;-62